sensor_id;sensor_type;location;lat;lon;timestamp;P1;durP1;ratioP1;P2;durP2;ratioP2
11269;SDS011;5692;48.956;9.200;2023-03-01T00:00:10;89.75;;;85.45;;
11269;SDS011;5692;48.956;9.200;2023-03-01T00:02:39;92.15;;;87.72;;
11269;SDS011;5692;48.956;9.200;2023-03-01T00:05:11;93.32;;;88.82;;
11269;SDS011;5692;48.956;9.200;2023-03-01T00:07:38;86.32;;;82.13;;
11269;SDS011;5692;48.956;9.200;2023-03-01T00:10:04;86.43;;;82.25;;
11269;SDS011;5692;48.956;9.200;2023-03-01T00:12:33;94.90;;;90.35;;
11269;SDS011;5692;48.956;9.200;2023-03-01T00:15:02;89.28;;;84.97;;
11269;SDS011;5692;48.956;9.200;2023-03-01T00:17:29;89.43;;;85.13;;
11269;SDS011;5692;48.956;9.200;2023-03-01T00:19:58;90.28;;;85.93;;
11269;SDS011;5692;48.956;9.200;2023-03-01T00:22:26;83.80;;;79.75;;
11269;SDS011;5692;48.956;9.200;2023-03-01T00:24:57;87.82;;;83.63;;
11269;SDS011;5692;48.956;9.200;2023-03-01T00:27:24;94.97;;;90.38;;
11269;SDS011;5692;48.956;9.200;2023-03-01T00:29:50;88.93;;;84.63;;
11269;SDS011;5692;48.956;9.200;2023-03-01T00:32:16;86.40;;;82.22;;
11269;SDS011;5692;48.956;9.200;2023-03-01T00:34:42;92.63;;;88.15;;
11269;SDS011;5692;48.956;9.200;2023-03-01T00:37:19;82.80;;;78.80;;
11269;SDS011;5692;48.956;9.200;2023-03-01T00:39:49;92.43;;;87.97;;
11269;SDS011;5692;48.956;9.200;2023-03-01T00:42:18;94.72;;;90.15;;
11269;SDS011;5692;48.956;9.200;2023-03-01T00:44:47;95.55;;;90.95;;
11269;SDS011;5692;48.956;9.200;2023-03-01T00:47:16;94.15;;;89.63;;
11269;SDS011;5692;48.956;9.200;2023-03-01T00:49:42;102.20;;;97.30;;
11269;SDS011;5692;48.956;9.200;2023-03-01T00:52:11;92.78;;;88.30;;
11269;SDS011;5692;48.956;9.200;2023-03-01T00:54:37;92.30;;;87.88;;
11269;SDS011;5692;48.956;9.200;2023-03-01T00:57:09;96.00;;;91.40;;
11269;SDS011;5692;48.956;9.200;2023-03-01T00:59:37;95.72;;;91.13;;
11269;SDS011;5692;48.956;9.200;2023-03-01T01:02:06;80.30;;;76.40;;
11269;SDS011;5692;48.956;9.200;2023-03-01T01:04:35;80.50;;;76.60;;
11269;SDS011;5692;48.956;9.200;2023-03-01T01:07:09;83.43;;;79.40;;
11269;SDS011;5692;48.956;9.200;2023-03-01T01:09:35;90.43;;;86.07;;
11269;SDS011;5692;48.956;9.200;2023-03-01T01:12:04;86.97;;;82.80;;
11269;SDS011;5692;48.956;9.200;2023-03-01T01:14:31;84.10;;;80.03;;
11269;SDS011;5692;48.956;9.200;2023-03-01T01:16:57;84.97;;;80.88;;
11269;SDS011;5692;48.956;9.200;2023-03-01T01:19:23;78.47;;;74.68;;
11269;SDS011;5692;48.956;9.200;2023-03-01T01:21:50;83.38;;;79.38;;
11269;SDS011;5692;48.956;9.200;2023-03-01T01:24:16;80.38;;;76.47;;
11269;SDS011;5692;48.956;9.200;2023-03-01T01:26:43;81.43;;;77.53;;
11269;SDS011;5692;48.956;9.200;2023-03-01T01:29:12;86.85;;;82.65;;
11269;SDS011;5692;48.956;9.200;2023-03-01T01:31:39;79.68;;;75.85;;
11269;SDS011;5692;48.956;9.200;2023-03-01T01:34:12;83.88;;;79.85;;
11269;SDS011;5692;48.956;9.200;2023-03-01T01:36:41;85.43;;;81.32;;
11269;SDS011;5692;48.956;9.200;2023-03-01T01:39:07;84.05;;;79.97;;
11269;SDS011;5692;48.956;9.200;2023-03-01T01:41:39;86.32;;;82.13;;
11269;SDS011;5692;48.956;9.200;2023-03-01T01:44:24;85.65;;;81.53;;
11269;SDS011;5692;48.956;9.200;2023-03-01T01:46:58;82.60;;;78.60;;
11269;SDS011;5692;48.956;9.200;2023-03-01T01:49:34;82.47;;;78.47;;
11269;SDS011;5692;48.956;9.200;2023-03-01T01:52:14;81.15;;;77.25;;
11269;SDS011;5692;48.956;9.200;2023-03-01T01:57:22;79.75;;;75.90;;
11269;SDS011;5692;48.956;9.200;2023-03-01T01:59:53;79.97;;;76.13;;
11269;SDS011;5692;48.956;9.200;2023-03-01T02:02:20;79.32;;;75.53;;
11269;SDS011;5692;48.956;9.200;2023-03-01T02:04:47;86.60;;;82.43;;
11269;SDS011;5692;48.956;9.200;2023-03-01T02:07:15;84.65;;;80.55;;
11269;SDS011;5692;48.956;9.200;2023-03-01T02:09:49;83.38;;;79.38;;
11269;SDS011;5692;48.956;9.200;2023-03-01T02:12:18;81.15;;;77.25;;
11269;SDS011;5692;48.956;9.200;2023-03-01T02:14:45;81.28;;;77.38;;
11269;SDS011;5692;48.956;9.200;2023-03-01T02:17:14;84.30;;;80.22;;
11269;SDS011;5692;48.956;9.200;2023-03-01T02:22:32;86.90;;;82.70;;
11269;SDS011;5692;48.956;9.200;2023-03-01T02:30:25;83.38;;;79.35;;
11269;SDS011;5692;48.956;9.200;2023-03-01T02:32:54;75.18;;;71.57;;
11269;SDS011;5692;48.956;9.200;2023-03-01T02:35:27;75.88;;;72.18;;
11269;SDS011;5692;48.956;9.200;2023-03-01T02:37:57;84.43;;;80.32;;
11269;SDS011;5692;48.956;9.200;2023-03-01T02:40:25;77.25;;;73.55;;
11269;SDS011;5692;48.956;9.200;2023-03-01T02:42:57;77.55;;;73.85;;
11269;SDS011;5692;48.956;9.200;2023-03-01T02:45:24;75.32;;;71.70;;
11269;SDS011;5692;48.956;9.200;2023-03-01T02:47:53;76.63;;;72.93;;
11269;SDS011;5692;48.956;9.200;2023-03-01T02:55:21;80.30;;;76.40;;
11269;SDS011;5692;48.956;9.200;2023-03-01T02:57:50;82.35;;;78.35;;
11269;SDS011;5692;48.956;9.200;2023-03-01T03:00:19;78.38;;;74.57;;
11269;SDS011;5692;48.956;9.200;2023-03-01T03:02:50;81.40;;;77.50;;
11269;SDS011;5692;48.956;9.200;2023-03-01T03:05:28;75.78;;;72.10;;
11269;SDS011;5692;48.956;9.200;2023-03-01T03:07:59;76.25;;;72.55;;
11269;SDS011;5692;48.956;9.200;2023-03-01T03:10:29;78.45;;;74.65;;
11269;SDS011;5692;48.956;9.200;2023-03-01T03:12:59;72.38;;;68.88;;
11269;SDS011;5692;48.956;9.200;2023-03-01T03:15:26;76.28;;;72.57;;
11269;SDS011;5692;48.956;9.200;2023-03-01T03:17:56;83.78;;;79.78;;
11269;SDS011;5692;48.956;9.200;2023-03-01T03:20:23;75.72;;;72.07;;
11269;SDS011;5692;48.956;9.200;2023-03-01T03:22:53;81.22;;;77.30;;
11269;SDS011;5692;48.956;9.200;2023-03-01T03:25:20;82.90;;;78.90;;
11269;SDS011;5692;48.956;9.200;2023-03-01T03:27:47;82.93;;;78.93;;
11269;SDS011;5692;48.956;9.200;2023-03-01T03:30:17;84.60;;;80.50;;
11269;SDS011;5692;48.956;9.200;2023-03-01T03:32:46;79.40;;;75.60;;
11269;SDS011;5692;48.956;9.200;2023-03-01T03:35:25;86.90;;;82.70;;
11269;SDS011;5692;48.956;9.200;2023-03-01T03:37:55;74.57;;;70.97;;
11269;SDS011;5692;48.956;9.200;2023-03-01T03:40:32;77.13;;;73.43;;
11269;SDS011;5692;48.956;9.200;2023-03-01T03:42:59;80.07;;;76.20;;
11269;SDS011;5692;48.956;9.200;2023-03-01T03:45:25;81.28;;;77.35;;
11269;SDS011;5692;48.956;9.200;2023-03-01T03:50:28;79.57;;;75.75;;
11269;SDS011;5692;48.956;9.200;2023-03-01T03:53:00;78.05;;;74.25;;
11269;SDS011;5692;48.956;9.200;2023-03-01T03:55:26;78.13;;;74.32;;
11269;SDS011;5692;48.956;9.200;2023-03-01T03:57:56;80.20;;;76.32;;
11269;SDS011;5692;48.956;9.200;2023-03-01T04:00:22;74.32;;;70.72;;
11269;SDS011;5692;48.956;9.200;2023-03-01T04:02:49;79.50;;;75.68;;
11269;SDS011;5692;48.956;9.200;2023-03-01T04:05:21;78.47;;;74.68;;
11269;SDS011;5692;48.956;9.200;2023-03-01T04:07:54;80.63;;;76.72;;
11269;SDS011;5692;48.956;9.200;2023-03-01T04:10:30;79.60;;;75.75;;
11269;SDS011;5692;48.956;9.200;2023-03-01T04:12:59;83.35;;;79.32;;
11269;SDS011;5692;48.956;9.200;2023-03-01T04:15:28;77.85;;;74.10;;
11269;SDS011;5692;48.956;9.200;2023-03-01T04:17:56;76.60;;;72.90;;
11269;SDS011;5692;48.956;9.200;2023-03-01T04:20:25;83.03;;;79.03;;
11269;SDS011;5692;48.956;9.200;2023-03-01T04:22:52;74.72;;;71.13;;
11269;SDS011;5692;48.956;9.200;2023-03-01T04:25:36;80.75;;;76.88;;
11269;SDS011;5692;48.956;9.200;2023-03-01T04:28:06;76.82;;;73.13;;
11269;SDS011;5692;48.956;9.200;2023-03-01T04:30:35;74.75;;;71.15;;
11269;SDS011;5692;48.956;9.200;2023-03-01T04:33:03;79.50;;;75.70;;
11269;SDS011;5692;48.956;9.200;2023-03-01T04:35:32;79.07;;;75.28;;
11269;SDS011;5692;48.956;9.200;2023-03-01T04:38:02;79.78;;;75.93;;
11269;SDS011;5692;48.956;9.200;2023-03-01T04:40:34;74.82;;;71.22;;
11269;SDS011;5692;48.956;9.200;2023-03-01T04:43:01;78.40;;;74.60;;
11269;SDS011;5692;48.956;9.200;2023-03-01T04:45:27;84.88;;;80.78;;
11269;SDS011;5692;48.956;9.200;2023-03-01T04:47:53;83.57;;;79.55;;
11269;SDS011;5692;48.956;9.200;2023-03-01T04:50:25;78.93;;;75.13;;
11269;SDS011;5692;48.956;9.200;2023-03-01T04:52:56;83.47;;;79.47;;
11269;SDS011;5692;48.956;9.200;2023-03-01T04:55:24;82.63;;;78.63;;
11269;SDS011;5692;48.956;9.200;2023-03-01T04:57:53;79.35;;;75.53;;
11269;SDS011;5692;48.956;9.200;2023-03-01T05:00:20;83.65;;;79.63;;
11269;SDS011;5692;48.956;9.200;2023-03-01T05:02:56;77.80;;;74.05;;
11269;SDS011;5692;48.956;9.200;2023-03-01T05:07:51;77.78;;;74.00;;
11269;SDS011;5692;48.956;9.200;2023-03-01T05:10:20;82.30;;;78.32;;
11269;SDS011;5692;48.956;9.200;2023-03-01T05:12:46;81.80;;;77.88;;
11269;SDS011;5692;48.956;9.200;2023-03-01T05:15:15;83.45;;;79.45;;
11269;SDS011;5692;48.956;9.200;2023-03-01T05:17:42;88.82;;;84.53;;
11269;SDS011;5692;48.956;9.200;2023-03-01T05:20:08;84.97;;;80.88;;
11269;SDS011;5692;48.956;9.200;2023-03-01T05:22:37;83.55;;;79.55;;
11269;SDS011;5692;48.956;9.200;2023-03-01T05:25:03;84.88;;;80.78;;
11269;SDS011;5692;48.956;9.200;2023-03-01T05:27:33;83.90;;;79.88;;
11269;SDS011;5692;48.956;9.200;2023-03-01T05:30:02;84.82;;;80.72;;
11269;SDS011;5692;48.956;9.200;2023-03-01T05:32:41;84.43;;;80.32;;
11269;SDS011;5692;48.956;9.200;2023-03-01T05:35:14;87.35;;;83.15;;
11269;SDS011;5692;48.956;9.200;2023-03-01T05:37:41;80.85;;;76.95;;
11269;SDS011;5692;48.956;9.200;2023-03-01T05:40:09;81.00;;;77.10;;
11269;SDS011;5692;48.956;9.200;2023-03-01T05:42:41;79.25;;;75.43;;
11269;SDS011;5692;48.956;9.200;2023-03-01T05:45:10;83.50;;;79.50;;
11269;SDS011;5692;48.956;9.200;2023-03-01T05:47:40;74.93;;;71.32;;
11269;SDS011;5692;48.956;9.200;2023-03-01T05:52:47;74.90;;;71.30;;
11269;SDS011;5692;48.956;9.200;2023-03-01T05:55:17;78.78;;;74.97;;
11269;SDS011;5692;48.956;9.200;2023-03-01T05:57:46;84.45;;;80.35;;
11269;SDS011;5692;48.956;9.200;2023-03-01T06:00:13;78.97;;;75.18;;
11269;SDS011;5692;48.956;9.200;2023-03-01T06:02:45;85.70;;;81.55;;
11269;SDS011;5692;48.956;9.200;2023-03-01T06:05:18;84.55;;;80.45;;
11269;SDS011;5692;48.956;9.200;2023-03-01T06:07:44;84.57;;;80.50;;
11269;SDS011;5692;48.956;9.200;2023-03-01T06:10:16;80.18;;;76.30;;
11269;SDS011;5692;48.956;9.200;2023-03-01T06:12:43;83.15;;;79.15;;
11269;SDS011;5692;48.956;9.200;2023-03-01T06:15:11;77.38;;;73.68;;
11269;SDS011;5692;48.956;9.200;2023-03-01T06:17:44;81.50;;;77.57;;
11269;SDS011;5692;48.956;9.200;2023-03-01T06:20:23;89.72;;;85.40;;
11269;SDS011;5692;48.956;9.200;2023-03-01T06:22:49;80.63;;;76.72;;
11269;SDS011;5692;48.956;9.200;2023-03-01T06:25:19;84.38;;;80.28;;
11269;SDS011;5692;48.956;9.200;2023-03-01T06:27:48;96.38;;;91.72;;
11269;SDS011;5692;48.956;9.200;2023-03-01T06:30:15;87.30;;;83.10;;
11269;SDS011;5692;48.956;9.200;2023-03-01T06:32:44;91.85;;;87.45;;
11269;SDS011;5692;48.956;9.200;2023-03-01T06:35:18;92.18;;;87.78;;
11269;SDS011;5692;48.956;9.200;2023-03-01T06:37:45;96.18;;;91.57;;
11269;SDS011;5692;48.956;9.200;2023-03-01T06:40:15;100.65;;;95.85;;
11269;SDS011;5692;48.956;9.200;2023-03-01T06:42:42;90.00;;;85.70;;
11269;SDS011;5692;48.956;9.200;2023-03-01T06:45:09;91.78;;;87.38;;
11269;SDS011;5692;48.956;9.200;2023-03-01T06:47:35;88.82;;;84.53;;
11269;SDS011;5692;48.956;9.200;2023-03-01T06:50:04;88.00;;;83.80;;
11269;SDS011;5692;48.956;9.200;2023-03-01T06:52:33;91.28;;;86.88;;
11269;SDS011;5692;48.956;9.200;2023-03-01T06:54:59;81.63;;;77.70;;
11269;SDS011;5692;48.956;9.200;2023-03-01T06:57:25;78.68;;;74.88;;
11269;SDS011;5692;48.956;9.200;2023-03-01T06:59:54;84.10;;;80.03;;
11269;SDS011;5692;48.956;9.200;2023-03-01T07:02:23;88.63;;;84.35;;
11269;SDS011;5692;48.956;9.200;2023-03-01T07:04:58;83.75;;;79.75;;
11269;SDS011;5692;48.956;9.200;2023-03-01T07:07:24;85.15;;;81.05;;
11269;SDS011;5692;48.956;9.200;2023-03-01T07:09:51;89.13;;;84.82;;
11269;SDS011;5692;48.956;9.200;2023-03-01T07:12:18;89.90;;;85.60;;
11269;SDS011;5692;48.956;9.200;2023-03-01T07:14:47;85.60;;;81.47;;
11269;SDS011;5692;48.956;9.200;2023-03-01T07:17:13;86.75;;;82.55;;
11269;SDS011;5692;48.956;9.200;2023-03-01T07:19:40;90.97;;;86.57;;
11269;SDS011;5692;48.956;9.200;2023-03-01T07:22:06;93.45;;;88.95;;
11269;SDS011;5692;48.956;9.200;2023-03-01T07:24:44;90.78;;;86.38;;
11269;SDS011;5692;48.956;9.200;2023-03-01T07:27:10;92.85;;;88.35;;
11269;SDS011;5692;48.956;9.200;2023-03-01T07:29:37;92.28;;;87.82;;
11269;SDS011;5692;48.956;9.200;2023-03-01T07:32:03;101.63;;;96.72;;
11269;SDS011;5692;48.956;9.200;2023-03-01T07:34:29;90.30;;;85.95;;
11269;SDS011;5692;48.956;9.200;2023-03-01T07:36:58;92.43;;;87.97;;
11269;SDS011;5692;48.956;9.200;2023-03-01T07:39:25;89.20;;;84.90;;
11269;SDS011;5692;48.956;9.200;2023-03-01T07:41:51;97.28;;;92.57;;
11269;SDS011;5692;48.956;9.200;2023-03-01T07:44:20;94.80;;;90.20;;
11269;SDS011;5692;48.956;9.200;2023-03-01T07:46:52;100.93;;;96.05;;
11269;SDS011;5692;48.956;9.200;2023-03-01T07:49:24;103.07;;;98.10;;
11269;SDS011;5692;48.956;9.200;2023-03-01T07:51:54;111.57;;;106.22;;
11269;SDS011;5692;48.956;9.200;2023-03-01T07:54:23;111.53;;;106.15;;
11269;SDS011;5692;48.956;9.200;2023-03-01T07:56:49;103.28;;;98.28;;
11269;SDS011;5692;48.956;9.200;2023-03-01T07:59:19;108.45;;;103.22;;
11269;SDS011;5692;48.956;9.200;2023-03-01T08:01:45;108.38;;;103.18;;
11269;SDS011;5692;48.956;9.200;2023-03-01T08:04:12;109.68;;;104.40;;
11269;SDS011;5692;48.956;9.200;2023-03-01T08:06:43;114.00;;;108.50;;
11269;SDS011;5692;48.956;9.200;2023-03-01T08:09:18;113.97;;;108.47;;
11269;SDS011;5692;48.956;9.200;2023-03-01T08:11:45;109.82;;;104.55;;
11269;SDS011;5692;48.956;9.200;2023-03-01T08:14:11;123.18;;;117.28;;
11269;SDS011;5692;48.956;9.200;2023-03-01T08:16:37;115.00;;;109.50;;
11269;SDS011;5692;48.956;9.200;2023-03-01T08:19:07;113.50;;;108.05;;
11269;SDS011;5692;48.956;9.200;2023-03-01T08:21:35;123.18;;;117.28;;
11269;SDS011;5692;48.956;9.200;2023-03-01T08:24:05;114.57;;;109.07;;
11269;SDS011;5692;48.956;9.200;2023-03-01T08:26:31;127.90;;;121.78;;
11269;SDS011;5692;48.956;9.200;2023-03-01T08:28:58;113.75;;;108.28;;
11269;SDS011;5692;48.956;9.200;2023-03-01T08:31:26;124.30;;;118.32;;
11269;SDS011;5692;48.956;9.200;2023-03-01T08:33:56;119.70;;;113.95;;
11269;SDS011;5692;48.956;9.200;2023-03-01T08:36:30;137.60;;;131.00;;
11269;SDS011;5692;48.956;9.200;2023-03-01T08:38:59;130.52;;;124.25;;
11269;SDS011;5692;48.956;9.200;2023-03-01T08:41:30;123.70;;;117.75;;
11269;SDS011;5692;48.956;9.200;2023-03-01T08:44:00;129.40;;;123.20;;
11269;SDS011;5692;48.956;9.200;2023-03-01T08:48:52;134.05;;;127.60;;
11269;SDS011;5692;48.956;9.200;2023-03-01T08:51:27;129.80;;;123.57;;
11269;SDS011;5692;48.956;9.200;2023-03-01T08:53:57;126.00;;;119.95;;
11269;SDS011;5692;48.956;9.200;2023-03-01T08:56:27;135.35;;;128.85;;
11269;SDS011;5692;48.956;9.200;2023-03-01T08:58:53;145.18;;;138.20;;
11269;SDS011;5692;48.956;9.200;2023-03-01T09:01:19;132.93;;;126.55;;
11269;SDS011;5692;48.956;9.200;2023-03-01T09:03:45;141.68;;;134.88;;
11269;SDS011;5692;48.956;9.200;2023-03-01T09:06:12;142.93;;;136.07;;
11269;SDS011;5692;48.956;9.200;2023-03-01T09:08:43;137.13;;;130.57;;
11269;SDS011;5692;48.956;9.200;2023-03-01T09:11:10;150.02;;;142.82;;
11269;SDS011;5692;48.956;9.200;2023-03-01T09:13:39;148.75;;;141.65;;
11269;SDS011;5692;48.956;9.200;2023-03-01T09:16:11;144.07;;;137.18;;
11269;SDS011;5692;48.956;9.200;2023-03-01T09:18:40;145.38;;;138.40;;
11269;SDS011;5692;48.956;9.200;2023-03-01T09:21:09;146.32;;;139.32;;
11269;SDS011;5692;48.956;9.200;2023-03-01T09:23:40;134.18;;;127.75;;
11269;SDS011;5692;48.956;9.200;2023-03-01T09:26:07;134.88;;;128.43;;
11269;SDS011;5692;48.956;9.200;2023-03-01T09:28:44;137.10;;;130.50;;
11269;SDS011;5692;48.956;9.200;2023-03-01T09:31:13;126.15;;;120.10;;
11269;SDS011;5692;48.956;9.200;2023-03-01T09:33:40;138.93;;;132.23;;
11269;SDS011;5692;48.956;9.200;2023-03-01T09:36:16;135.60;;;129.10;;
11269;SDS011;5692;48.956;9.200;2023-03-01T09:38:46;145.05;;;138.05;;
11269;SDS011;5692;48.956;9.200;2023-03-01T09:44:03;134.43;;;127.97;;
11269;SDS011;5692;48.956;9.200;2023-03-01T09:46:40;131.50;;;125.20;;
11269;SDS011;5692;48.956;9.200;2023-03-01T09:49:12;139.23;;;132.52;;
11269;SDS011;5692;48.956;9.200;2023-03-01T09:52:09;139.73;;;133.02;;
11269;SDS011;5692;48.956;9.200;2023-03-01T09:54:29;150.45;;;143.25;;
11269;SDS011;5692;48.956;9.200;2023-03-01T10:02:03;152.95;;;145.63;;
11269;SDS011;5692;48.956;9.200;2023-03-01T10:09:41;156.50;;;149.00;;
11269;SDS011;5692;48.956;9.200;2023-03-01T10:12:11;159.80;;;152.13;;
11269;SDS011;5692;48.956;9.200;2023-03-01T10:14:39;174.02;;;165.68;;
11269;SDS011;5692;48.956;9.200;2023-03-01T10:17:14;171.90;;;163.70;;
11269;SDS011;5692;48.956;9.200;2023-03-01T10:19:45;165.65;;;157.73;;
11269;SDS011;5692;48.956;9.200;2023-03-01T10:24:46;176.32;;;167.88;;
11269;SDS011;5692;48.956;9.200;2023-03-01T10:27:26;171.55;;;163.32;;
11269;SDS011;5692;48.956;9.200;2023-03-01T10:30:13;183.05;;;174.30;;
11269;SDS011;5692;48.956;9.200;2023-03-01T10:32:44;170.75;;;162.57;;
11269;SDS011;5692;48.956;9.200;2023-03-01T10:37:56;193.90;;;184.60;;
11269;SDS011;5692;48.956;9.200;2023-03-01T10:40:25;183.05;;;174.30;;
11269;SDS011;5692;48.956;9.200;2023-03-01T10:42:51;203.50;;;193.75;;
11269;SDS011;5692;48.956;9.200;2023-03-01T10:45:27;188.35;;;179.35;;
11269;SDS011;5692;48.956;9.200;2023-03-01T10:48:03;193.80;;;184.52;;
11269;SDS011;5692;48.956;9.200;2023-03-01T10:50:29;192.05;;;182.85;;
11269;SDS011;5692;48.956;9.200;2023-03-01T10:52:58;214.70;;;204.40;;
11269;SDS011;5692;48.956;9.200;2023-03-01T10:55:31;211.55;;;201.43;;
11269;SDS011;5692;48.956;9.200;2023-03-01T10:58:06;224.77;;;214.05;;
11269;SDS011;5692;48.956;9.200;2023-03-01T11:00:44;196.55;;;187.15;;
11269;SDS011;5692;48.956;9.200;2023-03-01T11:03:15;218.95;;;208.48;;
11269;SDS011;5692;48.956;9.200;2023-03-01T11:05:50;214.80;;;204.52;;
11269;SDS011;5692;48.956;9.200;2023-03-01T11:08:26;16.42;;;8.90;;
11269;SDS011;5692;48.956;9.200;2023-03-01T11:11:04;15.38;;;10.10;;
11269;SDS011;5692;48.956;9.200;2023-03-01T11:13:31;10.88;;;9.18;;
11269;SDS011;5692;48.956;9.200;2023-03-01T11:16:05;14.50;;;10.15;;
11269;SDS011;5692;48.956;9.200;2023-03-01T11:18:32;27.02;;;7.75;;
11269;SDS011;5692;48.956;9.200;2023-03-01T11:21:01;203.65;;;193.90;;
11269;SDS011;5692;48.956;9.200;2023-03-01T11:23:28;222.75;;;212.10;;
11269;SDS011;5692;48.956;9.200;2023-03-01T11:25:55;226.45;;;215.63;;
11269;SDS011;5692;48.956;9.200;2023-03-01T11:28:22;230.00;;;219.00;;
11269;SDS011;5692;48.956;9.200;2023-03-01T11:38:27;239.27;;;227.82;;
11269;SDS011;5692;48.956;9.200;2023-03-01T11:46:14;266.40;;;253.70;;
11269;SDS011;5692;48.956;9.200;2023-03-01T11:51:42;255.77;;;243.55;;
11269;SDS011;5692;48.956;9.200;2023-03-01T11:55:04;267.27;;;254.48;;
11269;SDS011;5692;48.956;9.200;2023-03-01T11:57:00;247.18;;;235.35;;
11269;SDS011;5692;48.956;9.200;2023-03-01T11:59:39;248.75;;;236.85;;
11269;SDS011;5692;48.956;9.200;2023-03-01T12:20:32;17.20;;;10.95;;
11269;SDS011;5692;48.956;9.200;2023-03-01T12:25:52;19.45;;;13.40;;
11269;SDS011;5692;48.956;9.200;2023-03-01T12:28:27;15.23;;;14.43;;
11269;SDS011;5692;48.956;9.200;2023-03-01T12:41:40;231.82;;;220.73;;
11269;SDS011;5692;48.956;9.200;2023-03-01T12:49:21;253.18;;;241.07;;
11269;SDS011;5692;48.956;9.200;2023-03-01T12:52:02;288.80;;;275.00;;
11269;SDS011;5692;48.956;9.200;2023-03-01T12:54:35;266.95;;;254.20;;
11269;SDS011;5692;48.956;9.200;2023-03-01T13:02:19;262.35;;;249.82;;
11269;SDS011;5692;48.956;9.200;2023-03-01T13:07:25;255.82;;;243.57;;
11269;SDS011;5692;48.956;9.200;2023-03-01T13:15:13;242.60;;;231.00;;
11269;SDS011;5692;48.956;9.200;2023-03-01T13:17:50;202.02;;;192.35;;
11269;SDS011;5692;48.956;9.200;2023-03-01T13:20:19;203.35;;;193.65;;
11269;SDS011;5692;48.956;9.200;2023-03-01T13:22:48;207.30;;;197.38;;
11269;SDS011;5692;48.956;9.200;2023-03-01T13:25:26;205.50;;;195.68;;
11269;SDS011;5692;48.956;9.200;2023-03-01T13:27:52;193.27;;;184.02;;
11269;SDS011;5692;48.956;9.200;2023-03-01T13:30:39;184.85;;;176.00;;
11269;SDS011;5692;48.956;9.200;2023-03-01T13:35:50;193.85;;;184.55;;
11269;SDS011;5692;48.956;9.200;2023-03-01T13:40:58;191.02;;;181.88;;
11269;SDS011;5692;48.956;9.200;2023-03-01T13:43:31;180.15;;;171.50;;
11269;SDS011;5692;48.956;9.200;2023-03-01T13:45:57;195.10;;;185.77;;
11269;SDS011;5692;48.956;9.200;2023-03-01T13:48:25;192.18;;;182.98;;
11269;SDS011;5692;48.956;9.200;2023-03-01T13:50:57;186.10;;;177.20;;
11269;SDS011;5692;48.956;9.200;2023-03-01T13:53:25;187.02;;;178.07;;
11269;SDS011;5692;48.956;9.200;2023-03-01T13:55:55;199.00;;;189.48;;
11269;SDS011;5692;48.956;9.200;2023-03-01T13:58:29;194.80;;;185.48;;
11269;SDS011;5692;48.956;9.200;2023-03-01T14:01:02;191.85;;;182.68;;
11269;SDS011;5692;48.956;9.200;2023-03-01T14:03:31;195.02;;;185.70;;
11269;SDS011;5692;48.956;9.200;2023-03-01T14:06:08;200.95;;;191.32;;
11269;SDS011;5692;48.956;9.200;2023-03-01T14:08:35;191.77;;;182.57;;
11269;SDS011;5692;48.956;9.200;2023-03-01T14:16:43;188.65;;;179.63;;
11269;SDS011;5692;48.956;9.200;2023-03-01T14:19:22;177.35;;;168.85;;
11269;SDS011;5692;48.956;9.200;2023-03-01T14:22:12;192.75;;;183.52;;
11269;SDS011;5692;48.956;9.200;2023-03-01T14:24:44;192.85;;;183.60;;
11269;SDS011;5692;48.956;9.200;2023-03-01T14:27:12;192.48;;;183.27;;
11269;SDS011;5692;48.956;9.200;2023-03-01T14:29:40;183.65;;;174.85;;
11269;SDS011;5692;48.956;9.200;2023-03-01T14:32:18;191.82;;;182.65;;
11269;SDS011;5692;48.956;9.200;2023-03-01T14:34:46;180.30;;;171.68;;
11269;SDS011;5692;48.956;9.200;2023-03-01T14:37:20;199.60;;;190.00;;
11269;SDS011;5692;48.956;9.200;2023-03-01T14:39:50;195.40;;;186.05;;
11269;SDS011;5692;48.956;9.200;2023-03-01T14:42:16;191.70;;;182.50;;
11269;SDS011;5692;48.956;9.200;2023-03-01T14:44:43;177.93;;;169.43;;
11269;SDS011;5692;48.956;9.200;2023-03-01T14:47:31;174.13;;;165.80;;
11269;SDS011;5692;48.956;9.200;2023-03-01T14:50:08;178.10;;;169.57;;
11269;SDS011;5692;48.956;9.200;2023-03-01T14:52:36;173.45;;;165.15;;
11269;SDS011;5692;48.956;9.200;2023-03-01T14:58:11;181.95;;;173.25;;
11269;SDS011;5692;48.956;9.200;2023-03-01T15:00:49;180.43;;;171.80;;
11269;SDS011;5692;48.956;9.200;2023-03-01T15:06:05;175.75;;;167.32;;
11269;SDS011;5692;48.956;9.200;2023-03-01T15:08:34;174.93;;;166.52;;
11269;SDS011;5692;48.956;9.200;2023-03-01T15:11:03;172.20;;;163.95;;
11269;SDS011;5692;48.956;9.200;2023-03-01T15:13:31;159.35;;;151.73;;
11269;SDS011;5692;48.956;9.200;2023-03-01T15:16:03;154.20;;;146.80;;
11269;SDS011;5692;48.956;9.200;2023-03-01T15:18:31;171.05;;;162.85;;
11269;SDS011;5692;48.956;9.200;2023-03-01T15:21:08;158.05;;;150.45;;
11269;SDS011;5692;48.956;9.200;2023-03-01T15:23:34;164.75;;;156.85;;
11269;SDS011;5692;48.956;9.200;2023-03-01T15:26:02;151.82;;;144.55;;
11269;SDS011;5692;48.956;9.200;2023-03-01T15:28:40;147.73;;;140.63;;
11269;SDS011;5692;48.956;9.200;2023-03-01T15:33:44;155.85;;;148.35;;
11269;SDS011;5692;48.956;9.200;2023-03-01T15:38:58;170.95;;;162.77;;
11269;SDS011;5692;48.956;9.200;2023-03-01T15:44:25;158.40;;;150.80;;
11269;SDS011;5692;48.956;9.200;2023-03-01T15:46:52;161.82;;;154.02;;
11269;SDS011;5692;48.956;9.200;2023-03-01T15:52:03;168.35;;;160.30;;
11269;SDS011;5692;48.956;9.200;2023-03-01T15:54:29;168.07;;;160.02;;
11269;SDS011;5692;48.956;9.200;2023-03-01T15:56:56;173.02;;;164.73;;
11269;SDS011;5692;48.956;9.200;2023-03-01T15:59:24;162.93;;;155.13;;
11269;SDS011;5692;48.956;9.200;2023-03-01T16:01:52;170.93;;;162.75;;
11269;SDS011;5692;48.956;9.200;2023-03-01T16:04:18;160.48;;;152.77;;
11269;SDS011;5692;48.956;9.200;2023-03-01T16:06:51;161.40;;;153.70;;
11269;SDS011;5692;48.956;9.200;2023-03-01T16:09:21;159.27;;;151.65;;
11269;SDS011;5692;48.956;9.200;2023-03-01T16:11:53;160.98;;;153.27;;
11269;SDS011;5692;48.956;9.200;2023-03-01T16:14:19;155.38;;;147.93;;
11269;SDS011;5692;48.956;9.200;2023-03-01T16:16:48;166.23;;;158.25;;
11269;SDS011;5692;48.956;9.200;2023-03-01T16:19:17;169.43;;;161.32;;
11269;SDS011;5692;48.956;9.200;2023-03-01T16:21:43;159.13;;;151.52;;
11269;SDS011;5692;48.956;9.200;2023-03-01T16:24:12;161.57;;;153.85;;
11269;SDS011;5692;48.956;9.200;2023-03-01T16:26:38;166.95;;;158.95;;
11269;SDS011;5692;48.956;9.200;2023-03-01T16:29:07;155.10;;;147.70;;
11269;SDS011;5692;48.956;9.200;2023-03-01T16:31:33;153.95;;;146.55;;
11269;SDS011;5692;48.956;9.200;2023-03-01T16:34:05;156.23;;;148.73;;
11269;SDS011;5692;48.956;9.200;2023-03-01T16:36:34;148.80;;;141.65;;
11269;SDS011;5692;48.956;9.200;2023-03-01T16:39:01;148.38;;;141.27;;
11269;SDS011;5692;48.956;9.200;2023-03-01T16:41:28;151.00;;;143.77;;
11269;SDS011;5692;48.956;9.200;2023-03-01T16:43:54;143.60;;;136.70;;
11269;SDS011;5692;48.956;9.200;2023-03-01T16:46:27;128.68;;;122.47;;
11269;SDS011;5692;48.956;9.200;2023-03-01T16:48:53;130.85;;;124.55;;
11269;SDS011;5692;48.956;9.200;2023-03-01T16:51:20;126.38;;;120.32;;
11269;SDS011;5692;48.956;9.200;2023-03-01T16:53:47;125.18;;;119.18;;
11269;SDS011;5692;48.956;9.200;2023-03-01T16:56:13;134.38;;;127.93;;